Estación Meteorológica Peña el Pijo (Robertgarden) [ 12/11/18 10:55:10 CET ]

Fecha Hora Presion(HPa) Temp (°C) Humedad % Rocio (°C) Viento ( m/s) Direccion Lluvia 1Hora(mm) Lluvia 24H(mm) LLuvia Total(mm)
2018-Dec-08 01:01:34 1016.500 2.1 61 -4.6         154.88
2018-Dec-08 02:01:43 1016.100 0.8 65 -5.1         154.88
2018-Dec-08 03:04:09 1015.900 0.3 68 -4.9         154.88
2018-Dec-08 04:01:32 1015.600 0.1 70 -4.7         154.88
2018-Dec-08 05:01:52 1015.200 0.1 71 -4.5         154.88
2018-Dec-08 06:01:42 1015.400 1.2 71 -3.5         154.88
2018-Dec-08 07:01:44 1015.800 0.7 73 -3.6         154.88
2018-Dec-08 08:02:02 1016.100 1.3 75 -2.7         154.88
2018-Dec-08 09:01:57 1016.600 4.5 71 -0.3         154.88
2018-Dec-08 10:02:01 1016.900 11.2 56 2.7         154.88
2018-Dec-08 11:01:43 1017.400 14.9 47 3.6         154.88
2018-Dec-08 12:01:42 1017.000 18.6 32 1.5         154.88
2018-Dec-08 13:01:55 1016.800 18.2 29 -0.2         154.88
2018-Dec-08 14:01:45 1016.400 18.7 30 0.8         154.88
2018-Dec-08 15:02:03 1016.100 19.4 30 1.4         154.88
2018-Dec-08 16:01:42 1016.200 17.2 34 1.1 0.7 E     154.88
2018-Dec-08 17:01:51 1016.400 14.9 38 0.6         154.88
2018-Dec-08 18:01:36 1016.900 11.0 47 0.1         154.88
2018-Dec-08 19:02:13 1017.700 7.8 54 -1.0         154.88
2018-Dec-08 20:01:37 1018.300 5.4 61 -1.5         154.88
2018-Dec-08 21:01:37 1018.800 4.3 63 -2.2         154.88
2018-Dec-08 22:01:41 1018.900 3.2 64 -3.0         154.88
2018-Dec-08 23:01:46 1018.900 3.1 65 -2.9         154.88

Temperatura Máxima:19°    Temperatura Mínima:
Presión Máxima:1018.900 Hpa    Presión Mínima:1015.200 Hpa


Volver